Etusivu
METAR-TAF:

METAR-TAF

Lentoasemat :

Sfax, Tunisia

Leveyspiiri: 34-43N, Pituuspiiri: 010-41E, korkeus merenpinnasta: 21 m

Tämänhetkinen sää

Tämä raportti tehtiin 38 minuuttia sitten, kello 23.00 UTC
Tuuli 6 kn pohjoisesta
Lämpötila 27°C
Kosteus 89%
Ilmanpaine 1014 hPa
Näkyvyys 10 km tai enemmän
Hajanaisia pilviä 3300 ft:n korkeudessa

METAR: DTTX 242300Z 36006KT 9999 SCT033 27/25 Q1014

Aika: 00:38 (23:38 UTC)

Sääennuste

Tämä raportti tehtiin 6 tuntia ja 38 minuuttia sitten, kello 17.00 UTC
Ennuste voimassa 24. päivästä klo 18 UTC - 25. päivään klo 18 UTC
Tuuli 5 kn idästä/kaakosta
Näkyvyys 10 km tai enemmän
Muutamia pilviä 3300 ft:n korkeudessa
Tulossa
25. päivästä klo 00 UTC - 25. päivään klo 02 UTC
Tuuli 4 kn luoteesta
Tulossa
25. päivästä klo 05 UTC - 25. päivään klo 07 UTC
Tuuli 8 kn lännestä/lounaasta

TAF: DTTX 241700Z 2418/2518 11005KT 9999 FEW033 BECMG 2500/2502 31004KT BECMG 2505/2507 24008KT

Säähavainnot ja -ennusteet yli 4000 lentoasemalta (METAR- ja TAF-raportit).

Käytössä olevat sääasemat on merkitty karttaan keltaisilla ja punaisilla pisteillä.

Aseta hiiri pisteen päälle nähdäksesi sääaseman nimen.

Klikkaa sitten nähdäksesi säähavainnot ja -ennusteet.

Kartan vaihtaminen: klikkaa mustalla rastilla varustettuja vihreitä pisteitä, niin voit zoomata sisään; viivalla varustettua vihreää pistettä, niin voit zoomata ulos tai vihreitä nuolia, niin pääset viereisille kartoille.


METAR-TAF: